createdAt,value
2023-02-11T00:00:03.666Z,0
2023-02-11T00:05:07.822Z,0
2023-02-11T00:10:12.002Z,0
2023-02-11T00:15:16.192Z,0
2023-02-11T00:20:20.324Z,0
2023-02-11T00:25:24.478Z,0
2023-02-11T00:30:28.628Z,0
2023-02-11T00:35:32.828Z,0
2023-02-11T00:40:36.934Z,0
2023-02-11T00:45:41.113Z,0
2023-02-11T00:50:43.375Z,0
2023-02-11T00:55:45.756Z,0
2023-02-11T01:00:49.823Z,0
2023-02-11T01:05:53.982Z,0
2023-02-11T01:10:58.146Z,0
2023-02-11T01:16:02.345Z,0
2023-02-11T01:21:06.597Z,0
2023-02-11T01:26:08.796Z,0
2023-02-11T01:31:12.997Z,0
2023-02-11T01:36:17.070Z,0
2023-02-11T01:41:21.209Z,0
2023-02-11T01:46:25.489Z,0
2023-02-11T01:51:29.574Z,0
2023-02-11T01:56:33.730Z,0
2023-02-11T02:01:38.000Z,0
2023-02-11T02:06:42.067Z,0
2023-02-11T02:11:46.230Z,0
2023-02-11T02:16:50.393Z,0
2023-02-11T02:21:54.542Z,0
2023-02-11T02:26:58.683Z,0
2023-02-11T02:32:02.861Z,0
2023-02-11T02:37:07.050Z,0
2023-02-11T02:42:09.310Z,0
2023-02-11T02:47:13.430Z,0
2023-02-11T02:52:15.740Z,0
2023-02-11T02:57:19.909Z,0
2023-02-11T03:02:24.060Z,0
2023-02-11T03:07:28.190Z,0
2023-02-11T03:12:32.368Z,0
2023-02-11T03:17:36.564Z,0
2023-02-11T03:22:40.712Z,0
2023-02-11T03:27:44.853Z,0
2023-02-11T03:32:49.048Z,0
2023-02-11T03:37:53.189Z,0
2023-02-11T03:42:57.369Z,0
2023-02-11T03:48:01.536Z,0
2023-02-11T03:53:05.788Z,0
2023-02-11T03:58:09.885Z,0
2023-02-11T04:03:14.162Z,0
2023-02-11T04:08:18.195Z,0
2023-02-11T04:13:22.313Z,0
2023-02-11T04:18:26.493Z,0
2023-02-11T04:23:30.670Z,0
2023-02-11T04:28:34.981Z,0
2023-02-11T04:33:39.025Z,0
2023-02-11T04:38:41.260Z,0
2023-02-11T04:43:45.419Z,0
2023-02-11T04:48:47.701Z,0
2023-02-11T04:53:51.884Z,0
2023-02-11T04:58:56.060Z,0
2023-02-11T05:04:00.287Z,0
2023-02-11T05:09:04.333Z,0
2023-02-11T05:14:08.503Z,0
2023-02-11T05:19:12.781Z,0
2023-02-11T05:24:16.868Z,0
2023-02-11T05:29:21.003Z,0
2023-02-11T05:34:25.196Z,0
2023-02-11T05:39:29.329Z,0
2023-02-11T05:44:33.476Z,0
2023-02-11T05:49:37.671Z,0
2023-02-11T05:54:41.818Z,0
2023-02-11T05:59:45.957Z,0
2023-02-11T06:04:50.164Z,0
2023-02-11T06:09:54.330Z,0
2023-02-11T06:14:58.456Z,0
2023-02-11T06:20:02.653Z,0
2023-02-11T06:25:06.782Z,0
2023-02-11T06:30:10.977Z,0
2023-02-11T06:35:13.241Z,0
2023-02-11T06:40:17.444Z,2
2023-02-11T06:45:21.597Z,5
2023-02-11T06:50:25.771Z,12
2023-02-11T06:55:29.882Z,19
2023-02-11T07:00:32.184Z,29
2023-02-11T07:05:36.329Z,47
2023-02-11T07:10:40.498Z,60
2023-02-11T07:15:44.714Z,77
2023-02-11T07:20:48.854Z,94
2023-02-11T07:25:53.067Z,112
2023-02-11T07:30:57.165Z,145
2023-02-11T07:36:01.343Z,153
2023-02-11T07:41:05.468Z,203
2023-02-11T07:46:09.650Z,265
2023-02-11T07:51:13.801Z,263
2023-02-11T07:56:17.982Z,357
2023-02-11T08:01:22.204Z,442
2023-02-11T08:06:26.333Z,520
2023-02-11T08:11:30.463Z,604
2023-02-11T08:16:34.717Z,758
2023-02-11T08:21:38.810Z,657
2023-02-11T08:26:42.924Z,915
2023-02-11T08:31:47.286Z,739
2023-02-11T08:36:51.276Z,898
2023-02-11T08:41:55.441Z,808
2023-02-11T08:46:57.694Z,936
2023-02-11T08:52:01.892Z,1088
2023-02-11T08:57:06.050Z,1335
2023-02-11T09:02:08.338Z,1322
2023-02-11T09:07:12.503Z,1916
2023-02-11T09:12:16.653Z,1947
2023-02-11T09:17:20.779Z,1683
2023-02-11T09:22:24.970Z,2214
2023-02-11T09:27:29.136Z,2285
2023-02-11T09:32:33.290Z,2334
2023-02-11T09:37:37.581Z,2660
2023-02-11T09:42:41.622Z,2382
2023-02-11T09:47:45.829Z,2542
2023-02-11T09:52:48.076Z,2480
2023-02-11T09:57:52.221Z,2115
2023-02-11T10:02:56.357Z,2632
2023-02-11T10:07:58.626Z,1965
2023-02-11T10:13:02.813Z,2715
2023-02-11T10:18:06.986Z,2447
2023-02-11T10:23:11.148Z,3266
2023-02-11T10:28:15.404Z,2508
2023-02-11T10:33:19.564Z,3590
2023-02-11T10:38:23.631Z,3400
2023-02-11T10:43:27.794Z,3164
2023-02-11T10:48:31.935Z,2939
2023-02-11T10:53:36.211Z,2135
2023-02-11T10:58:40.266Z,3030
2023-02-11T11:03:44.440Z,2780
2023-02-11T11:08:48.600Z,2680
2023-02-11T11:13:52.777Z,2475
2023-02-11T11:18:56.920Z,3003
2023-02-11T11:24:01.105Z,2492
2023-02-11T11:29:05.256Z,2550
2023-02-11T11:39:14.445Z,2638
2023-02-11T11:44:17.742Z,2875
2023-02-11T11:49:21.895Z,2463
2023-02-11T11:54:26.048Z,2955
2023-02-11T11:59:28.317Z,2778
2023-02-11T12:04:32.491Z,2792
2023-02-11T12:09:36.668Z,2939
2023-02-11T12:14:40.825Z,2705
2023-02-11T12:19:44.973Z,2824
2023-02-11T12:24:49.176Z,2925
2023-02-11T12:29:53.319Z,2635
2023-02-11T12:34:57.491Z,2868
2023-02-11T12:40:01.633Z,2970
2023-02-11T12:45:05.806Z,3435
2023-02-11T12:50:10.038Z,3303
2023-02-11T12:55:14.133Z,2867
2023-02-11T13:00:18.294Z,2689
2023-02-11T13:05:22.462Z,2600
2023-02-11T13:10:26.625Z,2544
2023-02-11T13:15:30.780Z,2440
2023-02-11T13:20:34.962Z,2587
2023-02-11T13:25:39.115Z,2343
2023-02-11T13:35:47.444Z,2450
2023-02-11T13:40:51.935Z,2701
2023-02-11T13:45:55.790Z,2868
2023-02-11T13:50:58.040Z,3516
2023-02-11T13:56:02.215Z,2780
2023-02-11T14:01:04.539Z,2919
2023-02-11T14:06:08.613Z,2590
2023-02-11T14:11:12.826Z,1825
2023-02-11T14:16:22.514Z,1368
2023-02-11T14:21:21.106Z,1066
2023-02-11T14:26:25.291Z,902
2023-02-11T14:31:29.555Z,893
2023-02-11T14:36:33.614Z,1740
2023-02-11T14:41:37.786Z,1771
2023-02-11T14:51:46.084Z,3600
2023-02-11T14:56:50.223Z,3497
2023-02-11T15:01:54.677Z,3338
2023-02-11T15:06:58.582Z,3056
2023-02-11T15:12:02.746Z,2693
2023-02-11T15:17:06.876Z,2271
2023-02-11T15:22:11.068Z,2189
2023-02-11T15:27:15.199Z,2100
2023-02-11T15:32:19.483Z,1962
2023-02-11T15:37:23.610Z,1828
2023-02-11T15:42:27.705Z,1631
2023-02-11T15:47:32.955Z,1227
2023-02-11T15:52:34.107Z,1089
2023-02-11T15:57:38.331Z,1010
2023-02-11T16:02:42.535Z,811
2023-02-11T16:07:46.622Z,739
2023-02-11T16:12:50.780Z,600
2023-02-11T16:17:55.007Z,487
2023-02-11T16:22:59.117Z,353
2023-02-11T16:28:03.311Z,242
2023-02-11T16:33:07.458Z,196
2023-02-11T16:38:11.614Z,94
2023-02-11T16:43:15.761Z,60
2023-02-11T16:48:19.934Z,36
2023-02-11T16:53:24.078Z,16
2023-02-11T16:58:28.273Z,15
2023-02-11T17:03:32.402Z,8
2023-02-11T17:08:36.572Z,3
2023-02-11T17:13:40.722Z,0
2023-02-11T17:18:44.869Z,0
2023-02-11T17:23:49.064Z,0
2023-02-11T17:28:53.241Z,0
2023-02-11T17:33:57.370Z,0
2023-02-11T17:38:59.651Z,0
2023-02-11T17:44:03.823Z,0
2023-02-11T17:49:06.079Z,0
2023-02-11T17:54:10.222Z,0
2023-02-11T17:59:12.527Z,0
2023-02-11T18:04:16.739Z,0
2023-02-11T18:09:20.860Z,0
2023-02-11T18:14:23.110Z,0
2023-02-11T18:19:27.279Z,0
2023-02-11T18:24:29.567Z,0
2023-02-11T18:29:33.717Z,0
2023-02-11T18:34:37.894Z,0
2023-02-11T18:39:42.059Z,0
2023-02-11T18:44:46.230Z,0
2023-02-11T18:49:50.387Z,0
2023-02-11T18:54:54.542Z,0
2023-02-11T18:59:58.665Z,0
2023-02-11T19:05:02.861Z,0
2023-02-11T19:10:07.002Z,0
2023-02-11T19:15:11.212Z,0
2023-02-11T19:20:15.353Z,0
2023-02-11T19:25:19.509Z,0
2023-02-11T19:30:23.666Z,0
2023-02-11T19:35:27.853Z,0
2023-02-11T19:40:31.979Z,0
2023-02-11T19:45:36.150Z,0
2023-02-11T19:50:40.295Z,0
2023-02-11T19:55:44.620Z,0
2023-02-11T20:00:46.748Z,0
2023-02-11T20:05:51.285Z,0
2023-02-11T20:10:55.114Z,0
2023-02-11T20:15:57.434Z,0
2023-02-11T20:21:01.533Z,0
2023-02-11T20:26:05.686Z,0
2023-02-11T20:31:09.933Z,0
2023-02-11T20:36:14.023Z,0
2023-02-11T20:41:18.177Z,0
2023-02-11T20:46:22.347Z,0
2023-02-11T20:51:26.523Z,0
2023-02-11T20:56:30.664Z,0
2023-02-11T21:01:34.843Z,0
2023-02-11T21:06:38.983Z,0
2023-02-11T21:11:43.138Z,0
2023-02-11T21:16:47.373Z,0
2023-02-11T21:21:51.476Z,0
2023-02-11T21:26:55.599Z,0
2023-02-11T21:32:00.102Z,0
2023-02-11T21:37:03.952Z,0
2023-02-11T21:42:08.167Z,0
2023-02-11T21:47:12.271Z,0
2023-02-11T21:52:16.481Z,0
2023-02-11T21:57:20.584Z,0
2023-02-11T22:02:22.899Z,0
2023-02-11T22:07:27.014Z,0
2023-02-11T22:12:31.195Z,0
2023-02-11T22:17:33.585Z,0
2023-02-11T22:22:37.631Z,0
2023-02-11T22:27:41.816Z,0
2023-02-11T22:32:45.974Z,0
2023-02-11T22:37:50.087Z,0
2023-02-11T22:42:54.253Z,0
2023-02-11T22:47:58.458Z,0
2023-02-11T22:53:02.634Z,0
2023-02-11T22:58:06.741Z,0
2023-02-11T23:03:11.018Z,0
2023-02-11T23:08:15.106Z,0
2023-02-11T23:13:19.246Z,0
2023-02-11T23:18:23.410Z,0
2023-02-11T23:23:27.583Z,0
2023-02-11T23:28:31.811Z,0
2023-02-11T23:33:35.901Z,0
2023-02-11T23:38:40.077Z,0
2023-02-11T23:43:44.192Z,0
2023-02-11T23:48:48.362Z,0
2023-02-11T23:53:52.571Z,0
2023-02-11T23:58:56.664Z,0
